Nearby METAR Reports

 

KCMA - Camarillo, California, USA
Distance from station: WSW 4mi, 7km
Updated: Sat, 25-Jan-2020 12:55am PST
Clear
Clear
 Wind from calm
Wind: Calm
Temperature: 52°F , 11°C
Dew Point: 45°F , 7°C
Humidity: 77%
Barometer: 30.00 inHg , 1015.9 hPa
Clouds: Clear
Visibility: 10 miles , 16 km
2020/01/25 08:55 KCMA 250855Z AUTO 00000KT 10SM CLR 11/07 A3000 RMK AO2 SLP168 T01060072 51002
KNTD - Point Mugu Nas, California, USA
Distance from station: SSW 9mi, 15km
Updated: Fri, 24-Jan-2020 10:52pm PST
NOT Current
Partly cloudy
Partly cloudy
 Wind from calm
Wind: Calm
Temperature: 55°F , 13°C
Dew Point: 50°F , 10°C
Humidity: 82%
Barometer: 30.02 inHg , 1016.6 hPa
Clouds: Partly cloudy
Visibility: 10 miles , 16 km
Cloud details: Few Clouds 20000 ft
Partly cloudy 28000 ft
2020/01/25 06:52 KNTD 250652Z 00000KT 10SM FEW200 SCT280 13/10 A3002 RMK SLP165 T01320100
 
KOXR - Oxnard, California, USA
Distance from station: WSW 10mi, 16km
Updated: Sat, 25-Jan-2020 1:30am PST
Fog, Overcast
Fog, Overcast
 Wind from SSE
Wind: SSE 3 mph , 6 km/h
Temperature: 54°F , 12°C
Dew Point: 54°F , 12°C
Humidity: 100%
Barometer: 30.01 inHg , 1016.3 hPa
Summary: Fog
Clouds: Overcast
Visibility: 1/2 mile , 0.8 km
Cloud details: Overcast 200 ft
2020/01/25 09:30 KOXR 250930Z AUTO 16003KT 1/2SM FG VV002 12/12 A3001 RMK AO2 T01220122 $
KVNY - Van Nuys, California, USA
Distance from station: E 31mi, 50km
Updated: Sat, 25-Jan-2020 12:51am PST
Clear
Clear
 Wind from NNW
Wind: NNW 7 mph , 11 km/h
Temperature: 63°F , 17°C
Dew Point: 30°F , -1°C
Humidity: 30%
Barometer: 29.99 inHg , 1015.6 hPa
Clouds: Clear
Visibility: 10 miles , 16 km
2020/01/25 08:51 KVNY 250851Z AUTO 34006KT 10SM CLR 17/M01 A2999 RMK AO2 SLP148 T01721006 58006
 
KWHP - La / Whiteman, California, USA
Distance from station: E 35mi, 56km
Updated: Fri, 24-Jan-2020 8:00pm PST
NOT Current
Clear
Clear
 Wind from NW
Wind: NW 10 mph , 17 km/h
Temperature: 66°F , 19°C
Dew Point: 32°F , 0°C
Humidity: 28%
Barometer: 30.02 inHg , 1016.6 hPa
Clouds: Clear
Visibility: 10 miles , 16 km
2020/01/25 04:00 KWHP 250400Z 31009KT 10SM SKC 19/00 A3002
KSMO - Santa Monica, California, USA
Distance from station: ESE 36mi, 58km
Updated: Sat, 25-Jan-2020 12:51am PST
Fog, Overcast
Fog, Overcast
 Wind from S
Wind: S 3 mph , 6 km/h
Temperature: 54°F , 12°C
Dew Point: 54°F , 12°C
Humidity: 100%
Barometer: 30.01 inHg , 1016.3 hPa
Summary: Fog
Clouds: Overcast
Visibility: 1/4 mile , 0.4 km
Cloud details: Overcast 100 ft
2020/01/25 08:51 KSMO 250851Z AUTO 17003KT 1/4SM FG VV001 12/12 A3001 RMK AO2 SLP161 T01170117 56005
 
KBUR - Burbank, California, USA
Distance from station: E 38mi, 61km
Updated: Sat, 25-Jan-2020 12:53am PST
Clear
Clear
 Wind from calm
Wind: Calm
Temperature: 54°F , 12°C
Dew Point: 46°F , 8°C
Humidity: 77%
Barometer: 29.99 inHg , 1015.6 hPa
Clouds: Clear
Visibility: 10 miles , 16 km
2020/01/25 08:53 KBUR 250853Z 00000KT 10SM CLR 12/08 A2999 RMK AO2 SLP147 T01220078 58008
KSDB - Sandberg, California, USA
Distance from station: NNE 40mi, 64km
Updated: Sat, 25-Jan-2020 12:53am PST
Clear
Clear
 Wind from NE
Wind: NE 7 mph , 11 km/h
Temperature: 46°F , 8°C
Wind Chill: 42°F , 6°C
Dew Point: 28°F , -2°C
Humidity: 50%
Barometer: 30.12 inHg , 1020 hPa
Clouds: Clear
Visibility: 10 miles , 16 km
2020/01/25 08:53 KSDB 250853Z AUTO 04006KT 10SM CLR 08/M02 A3012 RMK AO2 SLP175 T00781022 56009
 
KLAX - Los Angeles, California, USA
Distance from station: ESE 42mi, 68km
Updated: Sat, 25-Jan-2020 1:14am PST
Fog, Overcast
Fog, Overcast
 
Temperature: 55°F , 13°C
Dew Point: 52°F , 11°C
Humidity: 88%
Barometer: 30.00 inHg , 1015.9 hPa
Summary: Fog
Clouds: Overcast
Cloud details: Overcast 100 ft
2020/01/25 09:14 KLAX 250914Z R25L/1200V3000FT FG VV001 13/11 A3000 RMK AO2 T01280111 $
KCQT - Los Angeles, California, USA
Distance from station: ESE 45mi, 73km
Updated: Sat, 25-Jan-2020 12:52am PST
Fog, Overcast
Fog, Overcast
 Wind from calm
Wind: Calm
Temperature: 55°F , 13°C
Dew Point: 54°F , 12°C
Humidity: 94%
Barometer: 30.01 inHg , 1016.3 hPa
Summary: Fog
Clouds: Overcast
Visibility: 1/2 mile , 0.8 km
Cloud details: Overcast 200 ft
2020/01/25 08:52 KCQT 250852Z AUTO 00000KT 1/2SM FG VV002 13/12 A3001 RMK AO2 SLP159 T01330117 58005
 
KHHR - Hawthorne, California, USA
Distance from station: ESE 45mi, 73km
Updated: Sat, 25-Jan-2020 12:53am PST
Fog, Overcast
Fog, Overcast
 Wind from ESE
Wind: ESE 6 mph , 9 km/h
Temperature: 54°F , 12°C
Dew Point: 52°F , 11°C
Humidity: 94%
Barometer: 30.01 inHg , 1016.3 hPa
Summary: Fog
Clouds: Overcast
Visibility: 1/4 mile , 0.4 km
Cloud details: Overcast 200 ft
2020/01/25 08:53 KHHR 250853Z AUTO 11005KT 1/4SM FG VV002 12/11 A3001 RMK AO2 SLP162 T01220111 56005 $
KSBA - Santa Barbara, California, USA
Distance from station: WNW 49mi, 79km
Updated: Sat, 25-Jan-2020 12:53am PST
Clear
Clear
 Wind from E
Wind: E 6 mph , 9 km/h
Temperature: 57°F , 14°C
Dew Point: 39°F , 4°C
Humidity: 51%
Barometer: 29.99 inHg , 1015.6 hPa
Clouds: Clear
Visibility: 10 miles , 16 km
2020/01/25 08:53 KSBA 250853Z 08005KT 10SM CLR 14/04 A2999 RMK AO2 SLP156 T01390039 50001